sensor_id;sensor_type;location;lat;lon;timestamp;P1;durP1;ratioP1;P2;durP2;ratioP2
4290;SDS011;2159;50.906;7.152;2024-03-22T00:01:26;21.07;;;11.43;;
4290;SDS011;2159;50.906;7.152;2024-03-22T00:03:54;19.10;;;12.40;;
4290;SDS011;2159;50.906;7.152;2024-03-22T00:06:20;18.70;;;12.30;;
4290;SDS011;2159;50.906;7.152;2024-03-22T00:08:47;18.10;;;11.43;;
4290;SDS011;2159;50.906;7.152;2024-03-22T00:11:12;17.77;;;11.30;;
4290;SDS011;2159;50.906;7.152;2024-03-22T00:13:39;21.00;;;13.00;;
4290;SDS011;2159;50.906;7.152;2024-03-22T00:16:05;20.13;;;12.87;;
4290;SDS011;2159;50.906;7.152;2024-03-22T00:18:31;19.70;;;12.33;;
4290;SDS011;2159;50.906;7.152;2024-03-22T00:20:58;21.03;;;12.87;;
4290;SDS011;2159;50.906;7.152;2024-03-22T00:23:27;22.97;;;12.77;;
4290;SDS011;2159;50.906;7.152;2024-03-22T00:25:54;27.50;;;13.17;;
4290;SDS011;2159;50.906;7.152;2024-03-22T00:28:21;19.40;;;12.30;;
4290;SDS011;2159;50.906;7.152;2024-03-22T00:30:47;22.37;;;12.10;;
4290;SDS011;2159;50.906;7.152;2024-03-22T00:33:13;22.40;;;12.00;;
4290;SDS011;2159;50.906;7.152;2024-03-22T00:35:40;19.40;;;13.27;;
4290;SDS011;2159;50.906;7.152;2024-03-22T00:38:07;20.60;;;12.60;;
4290;SDS011;2159;50.906;7.152;2024-03-22T00:40:33;23.00;;;13.70;;
4290;SDS011;2159;50.906;7.152;2024-03-22T00:42:59;20.00;;;13.27;;
4290;SDS011;2159;50.906;7.152;2024-03-22T00:45:26;20.90;;;12.87;;
4290;SDS011;2159;50.906;7.152;2024-03-22T00:47:51;20.17;;;12.30;;
4290;SDS011;2159;50.906;7.152;2024-03-22T00:50:18;19.70;;;12.87;;
4290;SDS011;2159;50.906;7.152;2024-03-22T00:52:44;20.20;;;12.43;;
4290;SDS011;2159;50.906;7.152;2024-03-22T00:55:11;21.27;;;13.40;;
4290;SDS011;2159;50.906;7.152;2024-03-22T00:57:37;21.77;;;13.07;;
4290;SDS011;2159;50.906;7.152;2024-03-22T01:00:04;20.20;;;11.97;;
4290;SDS011;2159;50.906;7.152;2024-03-22T01:02:30;20.70;;;12.60;;
4290;SDS011;2159;50.906;7.152;2024-03-22T01:04:56;20.53;;;12.60;;
4290;SDS011;2159;50.906;7.152;2024-03-22T01:07:22;20.37;;;12.13;;
4290;SDS011;2159;50.906;7.152;2024-03-22T01:09:48;20.37;;;11.97;;
4290;SDS011;2159;50.906;7.152;2024-03-22T01:12:15;19.30;;;11.47;;
4290;SDS011;2159;50.906;7.152;2024-03-22T01:14:42;22.97;;;12.63;;
4290;SDS011;2159;50.906;7.152;2024-03-22T01:17:08;21.23;;;11.70;;
4290;SDS011;2159;50.906;7.152;2024-03-22T01:19:34;21.23;;;12.90;;
4290;SDS011;2159;50.906;7.152;2024-03-22T01:22:00;23.30;;;13.30;;
4290;SDS011;2159;50.906;7.152;2024-03-22T01:24:27;23.43;;;12.50;;
4290;SDS011;2159;50.906;7.152;2024-03-22T01:26:53;20.37;;;13.13;;
4290;SDS011;2159;50.906;7.152;2024-03-22T01:29:21;22.60;;;12.77;;
4290;SDS011;2159;50.906;7.152;2024-03-22T01:31:47;21.47;;;13.00;;
4290;SDS011;2159;50.906;7.152;2024-03-22T01:34:13;23.83;;;13.20;;
4290;SDS011;2159;50.906;7.152;2024-03-22T01:36:40;21.33;;;13.50;;
4290;SDS011;2159;50.906;7.152;2024-03-22T01:39:06;20.70;;;11.90;;
4290;SDS011;2159;50.906;7.152;2024-03-22T01:41:32;20.93;;;11.63;;
4290;SDS011;2159;50.906;7.152;2024-03-22T01:43:58;19.90;;;12.30;;
4290;SDS011;2159;50.906;7.152;2024-03-22T01:46:25;22.07;;;12.90;;
4290;SDS011;2159;50.906;7.152;2024-03-22T01:48:52;19.13;;;11.50;;
4290;SDS011;2159;50.906;7.152;2024-03-22T01:51:18;21.40;;;11.70;;
4290;SDS011;2159;50.906;7.152;2024-03-22T01:53:45;22.23;;;12.13;;
4290;SDS011;2159;50.906;7.152;2024-03-22T01:56:10;20.63;;;12.03;;
4290;SDS011;2159;50.906;7.152;2024-03-22T01:58:37;21.70;;;12.50;;
4290;SDS011;2159;50.906;7.152;2024-03-22T02:01:03;18.47;;;11.20;;
4290;SDS011;2159;50.906;7.152;2024-03-22T02:03:31;21.10;;;11.80;;
4290;SDS011;2159;50.906;7.152;2024-03-22T02:05:56;19.37;;;11.83;;
4290;SDS011;2159;50.906;7.152;2024-03-22T02:08:23;18.37;;;11.97;;
4290;SDS011;2159;50.906;7.152;2024-03-22T02:10:49;18.60;;;11.30;;
4290;SDS011;2159;50.906;7.152;2024-03-22T02:13:15;19.40;;;11.27;;
4290;SDS011;2159;50.906;7.152;2024-03-22T02:15:41;22.30;;;11.30;;
4290;SDS011;2159;50.906;7.152;2024-03-22T02:18:08;17.97;;;11.30;;
4290;SDS011;2159;50.906;7.152;2024-03-22T02:20:36;19.60;;;11.47;;
4290;SDS011;2159;50.906;7.152;2024-03-22T02:23:03;19.30;;;11.77;;
4290;SDS011;2159;50.906;7.152;2024-03-22T02:25:30;19.60;;;11.30;;
4290;SDS011;2159;50.906;7.152;2024-03-22T02:27:56;17.37;;;11.00;;
4290;SDS011;2159;50.906;7.152;2024-03-22T02:30:22;19.70;;;12.07;;
4290;SDS011;2159;50.906;7.152;2024-03-22T02:32:49;18.07;;;10.87;;
4290;SDS011;2159;50.906;7.152;2024-03-22T02:35:14;19.07;;;10.70;;
4290;SDS011;2159;50.906;7.152;2024-03-22T02:37:41;22.10;;;11.43;;
4290;SDS011;2159;50.906;7.152;2024-03-22T02:40:07;17.60;;;10.50;;
4290;SDS011;2159;50.906;7.152;2024-03-22T02:42:35;18.40;;;11.27;;
4290;SDS011;2159;50.906;7.152;2024-03-22T02:45:01;18.77;;;11.00;;
4290;SDS011;2159;50.906;7.152;2024-03-22T02:47:27;16.80;;;10.67;;
4290;SDS011;2159;50.906;7.152;2024-03-22T02:49:53;19.03;;;10.27;;
4290;SDS011;2159;50.906;7.152;2024-03-22T02:52:20;17.90;;;10.13;;
4290;SDS011;2159;50.906;7.152;2024-03-22T02:54:45;14.47;;;9.87;;
4290;SDS011;2159;50.906;7.152;2024-03-22T02:57:12;18.53;;;9.77;;
4290;SDS011;2159;50.906;7.152;2024-03-22T02:59:39;15.50;;;10.20;;
4290;SDS011;2159;50.906;7.152;2024-03-22T03:02:06;19.20;;;10.43;;
4290;SDS011;2159;50.906;7.152;2024-03-22T03:04:31;19.37;;;11.07;;
4290;SDS011;2159;50.906;7.152;2024-03-22T03:06:58;18.40;;;10.20;;
4290;SDS011;2159;50.906;7.152;2024-03-22T03:09:24;16.47;;;10.20;;
4290;SDS011;2159;50.906;7.152;2024-03-22T03:11:51;12.43;;;9.37;;
4290;SDS011;2159;50.906;7.152;2024-03-22T03:14:17;16.80;;;9.70;;
4290;SDS011;2159;50.906;7.152;2024-03-22T03:16:45;16.50;;;10.10;;
4290;SDS011;2159;50.906;7.152;2024-03-22T03:19:10;17.97;;;10.30;;
4290;SDS011;2159;50.906;7.152;2024-03-22T03:21:37;18.10;;;9.53;;
4290;SDS011;2159;50.906;7.152;2024-03-22T03:24:02;15.17;;;9.40;;
4290;SDS011;2159;50.906;7.152;2024-03-22T03:26:29;16.27;;;9.37;;
4290;SDS011;2159;50.906;7.152;2024-03-22T03:28:54;17.13;;;9.53;;
4290;SDS011;2159;50.906;7.152;2024-03-22T03:31:21;15.00;;;9.23;;
4290;SDS011;2159;50.906;7.152;2024-03-22T03:33:48;15.97;;;8.87;;
4290;SDS011;2159;50.906;7.152;2024-03-22T03:36:15;14.80;;;8.93;;
4290;SDS011;2159;50.906;7.152;2024-03-22T03:38:41;18.47;;;9.30;;
4290;SDS011;2159;50.906;7.152;2024-03-22T03:41:07;12.90;;;8.37;;
4290;SDS011;2159;50.906;7.152;2024-03-22T03:43:33;15.67;;;9.67;;
4290;SDS011;2159;50.906;7.152;2024-03-22T03:45:59;16.83;;;9.47;;
4290;SDS011;2159;50.906;7.152;2024-03-22T03:48:25;18.70;;;9.83;;
4290;SDS011;2159;50.906;7.152;2024-03-22T03:50:53;14.63;;;9.47;;
4290;SDS011;2159;50.906;7.152;2024-03-22T03:53:20;17.07;;;9.40;;
4290;SDS011;2159;50.906;7.152;2024-03-22T03:55:46;16.07;;;10.10;;
4290;SDS011;2159;50.906;7.152;2024-03-22T03:58:12;14.83;;;9.53;;
4290;SDS011;2159;50.906;7.152;2024-03-22T04:00:39;18.73;;;10.80;;
4290;SDS011;2159;50.906;7.152;2024-03-22T04:03:05;18.70;;;10.17;;
4290;SDS011;2159;50.906;7.152;2024-03-22T04:05:31;17.00;;;9.80;;
4290;SDS011;2159;50.906;7.152;2024-03-22T04:07:58;15.57;;;9.17;;
4290;SDS011;2159;50.906;7.152;2024-03-22T04:10:25;19.13;;;9.60;;
4290;SDS011;2159;50.906;7.152;2024-03-22T04:12:51;16.87;;;10.40;;
4290;SDS011;2159;50.906;7.152;2024-03-22T04:15:17;15.97;;;9.60;;
4290;SDS011;2159;50.906;7.152;2024-03-22T04:17:43;16.67;;;10.00;;
4290;SDS011;2159;50.906;7.152;2024-03-22T04:20:10;21.33;;;10.40;;
4290;SDS011;2159;50.906;7.152;2024-03-22T04:22:36;16.33;;;9.57;;
4290;SDS011;2159;50.906;7.152;2024-03-22T04:25:05;16.23;;;9.43;;
4290;SDS011;2159;50.906;7.152;2024-03-22T04:27:31;20.37;;;9.53;;
4290;SDS011;2159;50.906;7.152;2024-03-22T04:29:57;15.70;;;8.90;;
4290;SDS011;2159;50.906;7.152;2024-03-22T04:32:23;13.90;;;9.30;;
4290;SDS011;2159;50.906;7.152;2024-03-22T04:34:50;21.17;;;10.63;;
4290;SDS011;2159;50.906;7.152;2024-03-22T04:37:16;17.20;;;9.83;;
4290;SDS011;2159;50.906;7.152;2024-03-22T04:39:42;14.50;;;9.40;;
4290;SDS011;2159;50.906;7.152;2024-03-22T04:42:13;14.90;;;8.80;;
4290;SDS011;2159;50.906;7.152;2024-03-22T04:44:41;17.30;;;9.57;;
4290;SDS011;2159;50.906;7.152;2024-03-22T04:47:07;15.10;;;9.57;;
4290;SDS011;2159;50.906;7.152;2024-03-22T04:49:33;15.40;;;8.80;;
4290;SDS011;2159;50.906;7.152;2024-03-22T04:52:00;14.10;;;8.70;;
4290;SDS011;2159;50.906;7.152;2024-03-22T04:54:25;16.40;;;8.90;;
4290;SDS011;2159;50.906;7.152;2024-03-22T04:56:52;14.60;;;9.13;;
4290;SDS011;2159;50.906;7.152;2024-03-22T04:59:19;13.53;;;9.10;;
4290;SDS011;2159;50.906;7.152;2024-03-22T05:01:45;16.53;;;9.10;;
4290;SDS011;2159;50.906;7.152;2024-03-22T05:04:11;17.83;;;9.20;;
4290;SDS011;2159;50.906;7.152;2024-03-22T05:06:38;15.40;;;9.27;;
4290;SDS011;2159;50.906;7.152;2024-03-22T05:09:03;15.67;;;9.17;;
4290;SDS011;2159;50.906;7.152;2024-03-22T05:11:30;16.00;;;8.73;;
4290;SDS011;2159;50.906;7.152;2024-03-22T05:13:57;14.67;;;9.23;;
4290;SDS011;2159;50.906;7.152;2024-03-22T05:16:24;15.83;;;9.27;;
4290;SDS011;2159;50.906;7.152;2024-03-22T05:18:50;14.53;;;9.00;;
4290;SDS011;2159;50.906;7.152;2024-03-22T05:21:17;14.20;;;8.60;;
4290;SDS011;2159;50.906;7.152;2024-03-22T05:23:42;12.87;;;8.93;;
4290;SDS011;2159;50.906;7.152;2024-03-22T05:26:09;16.63;;;9.10;;
4290;SDS011;2159;50.906;7.152;2024-03-22T05:28:35;14.77;;;8.80;;
4290;SDS011;2159;50.906;7.152;2024-03-22T05:31:02;19.30;;;8.67;;
4290;SDS011;2159;50.906;7.152;2024-03-22T05:33:29;16.80;;;8.50;;
4290;SDS011;2159;50.906;7.152;2024-03-22T05:35:56;12.33;;;8.40;;
4290;SDS011;2159;50.906;7.152;2024-03-22T05:38:22;12.80;;;8.50;;
4290;SDS011;2159;50.906;7.152;2024-03-22T05:40:48;14.17;;;9.10;;
4290;SDS011;2159;50.906;7.152;2024-03-22T05:43:14;12.90;;;8.43;;
4290;SDS011;2159;50.906;7.152;2024-03-22T05:45:41;11.00;;;8.17;;
4290;SDS011;2159;50.906;7.152;2024-03-22T05:48:07;13.90;;;8.53;;
4290;SDS011;2159;50.906;7.152;2024-03-22T05:50:35;12.90;;;8.70;;
4290;SDS011;2159;50.906;7.152;2024-03-22T05:53:00;14.10;;;8.60;;
4290;SDS011;2159;50.906;7.152;2024-03-22T05:55:27;13.20;;;7.97;;
4290;SDS011;2159;50.906;7.152;2024-03-22T05:57:56;13.43;;;8.00;;
4290;SDS011;2159;50.906;7.152;2024-03-22T06:00:23;15.40;;;8.73;;
4290;SDS011;2159;50.906;7.152;2024-03-22T06:02:48;12.30;;;8.70;;
4290;SDS011;2159;50.906;7.152;2024-03-22T06:05:15;16.43;;;8.10;;
4290;SDS011;2159;50.906;7.152;2024-03-22T06:07:44;12.67;;;8.00;;
4290;SDS011;2159;50.906;7.152;2024-03-22T06:10:11;13.10;;;8.03;;
4290;SDS011;2159;50.906;7.152;2024-03-22T06:12:37;11.93;;;7.93;;
4290;SDS011;2159;50.906;7.152;2024-03-22T06:15:04;13.80;;;8.50;;
4290;SDS011;2159;50.906;7.152;2024-03-22T06:17:31;13.97;;;7.93;;
4290;SDS011;2159;50.906;7.152;2024-03-22T06:19:58;13.50;;;7.97;;
4290;SDS011;2159;50.906;7.152;2024-03-22T06:22:25;15.30;;;7.33;;
4290;SDS011;2159;50.906;7.152;2024-03-22T06:24:53;11.83;;;7.53;;
4290;SDS011;2159;50.906;7.152;2024-03-22T06:27:18;11.90;;;7.80;;
4290;SDS011;2159;50.906;7.152;2024-03-22T06:29:45;14.23;;;7.80;;
4290;SDS011;2159;50.906;7.152;2024-03-22T06:32:11;14.70;;;7.93;;
4290;SDS011;2159;50.906;7.152;2024-03-22T06:34:38;12.10;;;7.70;;
4290;SDS011;2159;50.906;7.152;2024-03-22T06:37:04;11.77;;;6.80;;
4290;SDS011;2159;50.906;7.152;2024-03-22T06:39:30;11.93;;;7.43;;
4290;SDS011;2159;50.906;7.152;2024-03-22T06:41:57;12.93;;;8.33;;
4290;SDS011;2159;50.906;7.152;2024-03-22T06:44:24;13.20;;;7.43;;
4290;SDS011;2159;50.906;7.152;2024-03-22T06:46:49;10.40;;;6.83;;
4290;SDS011;2159;50.906;7.152;2024-03-22T06:49:16;14.37;;;7.13;;
4290;SDS011;2159;50.906;7.152;2024-03-22T06:51:42;14.80;;;7.20;;
4290;SDS011;2159;50.906;7.152;2024-03-22T06:54:09;11.47;;;7.60;;
4290;SDS011;2159;50.906;7.152;2024-03-22T06:56:35;11.97;;;6.73;;
4290;SDS011;2159;50.906;7.152;2024-03-22T06:59:03;13.57;;;6.50;;
4290;SDS011;2159;50.906;7.152;2024-03-22T07:01:28;11.00;;;7.50;;
4290;SDS011;2159;50.906;7.152;2024-03-22T07:03:55;9.37;;;6.60;;
4290;SDS011;2159;50.906;7.152;2024-03-22T07:06:21;11.57;;;7.17;;
4290;SDS011;2159;50.906;7.152;2024-03-22T07:08:47;10.67;;;7.10;;
4290;SDS011;2159;50.906;7.152;2024-03-22T07:11:13;10.97;;;7.03;;
4290;SDS011;2159;50.906;7.152;2024-03-22T07:13:40;11.17;;;7.63;;
4290;SDS011;2159;50.906;7.152;2024-03-22T07:16:07;10.50;;;7.20;;
4290;SDS011;2159;50.906;7.152;2024-03-22T07:18:34;15.33;;;7.37;;
4290;SDS011;2159;50.906;7.152;2024-03-22T07:20:59;12.80;;;7.17;;
4290;SDS011;2159;50.906;7.152;2024-03-22T07:23:27;11.40;;;7.10;;
4290;SDS011;2159;50.906;7.152;2024-03-22T07:25:53;10.93;;;6.80;;
4290;SDS011;2159;50.906;7.152;2024-03-22T07:28:19;10.20;;;7.00;;
4290;SDS011;2159;50.906;7.152;2024-03-22T07:30:45;10.97;;;7.40;;
4290;SDS011;2159;50.906;7.152;2024-03-22T07:33:14;12.33;;;7.33;;
4290;SDS011;2159;50.906;7.152;2024-03-22T07:35:42;15.50;;;7.27;;
4290;SDS011;2159;50.906;7.152;2024-03-22T07:38:08;9.90;;;7.20;;
4290;SDS011;2159;50.906;7.152;2024-03-22T07:40:37;12.50;;;7.00;;
4290;SDS011;2159;50.906;7.152;2024-03-22T07:43:03;15.20;;;7.83;;
4290;SDS011;2159;50.906;7.152;2024-03-22T07:45:31;9.80;;;6.90;;
4290;SDS011;2159;50.906;7.152;2024-03-22T07:47:58;10.63;;;6.80;;
4290;SDS011;2159;50.906;7.152;2024-03-22T07:50:25;13.20;;;7.40;;
4290;SDS011;2159;50.906;7.152;2024-03-22T07:52:52;11.27;;;6.97;;
4290;SDS011;2159;50.906;7.152;2024-03-22T07:55:17;11.43;;;6.93;;
4290;SDS011;2159;50.906;7.152;2024-03-22T07:57:44;9.73;;;7.10;;
4290;SDS011;2159;50.906;7.152;2024-03-22T08:00:10;9.90;;;6.80;;
4290;SDS011;2159;50.906;7.152;2024-03-22T08:02:37;10.17;;;6.73;;
4290;SDS011;2159;50.906;7.152;2024-03-22T08:05:03;13.87;;;7.00;;
4290;SDS011;2159;50.906;7.152;2024-03-22T08:07:31;10.03;;;7.50;;
4290;SDS011;2159;50.906;7.152;2024-03-22T08:09:57;10.33;;;7.60;;
4290;SDS011;2159;50.906;7.152;2024-03-22T08:12:25;14.13;;;7.43;;
4290;SDS011;2159;50.906;7.152;2024-03-22T08:14:50;16.50;;;6.80;;
4290;SDS011;2159;50.906;7.152;2024-03-22T08:17:17;12.40;;;8.77;;
4290;SDS011;2159;50.906;7.152;2024-03-22T08:19:43;13.60;;;8.10;;
4290;SDS011;2159;50.906;7.152;2024-03-22T08:22:10;13.17;;;8.70;;
4290;SDS011;2159;50.906;7.152;2024-03-22T08:24:37;14.60;;;8.57;;
4290;SDS011;2159;50.906;7.152;2024-03-22T08:27:04;18.30;;;9.47;;
4290;SDS011;2159;50.906;7.152;2024-03-22T08:29:29;13.30;;;9.00;;
4290;SDS011;2159;50.906;7.152;2024-03-22T08:31:56;14.17;;;8.77;;
4290;SDS011;2159;50.906;7.152;2024-03-22T08:34:21;12.70;;;8.30;;
4290;SDS011;2159;50.906;7.152;2024-03-22T08:36:48;11.70;;;7.90;;
4290;SDS011;2159;50.906;7.152;2024-03-22T08:39:13;11.07;;;7.67;;
4290;SDS011;2159;50.906;7.152;2024-03-22T08:41:43;17.33;;;9.03;;
4290;SDS011;2159;50.906;7.152;2024-03-22T08:44:08;14.83;;;8.70;;
4290;SDS011;2159;50.906;7.152;2024-03-22T08:46:35;15.70;;;8.63;;
4290;SDS011;2159;50.906;7.152;2024-03-22T08:49:01;14.67;;;8.67;;
4290;SDS011;2159;50.906;7.152;2024-03-22T08:51:28;11.53;;;8.43;;
4290;SDS011;2159;50.906;7.152;2024-03-22T08:53:54;16.40;;;9.03;;
4290;SDS011;2159;50.906;7.152;2024-03-22T08:56:21;15.33;;;9.30;;
4290;SDS011;2159;50.906;7.152;2024-03-22T08:58:48;17.37;;;10.00;;
4290;SDS011;2159;50.906;7.152;2024-03-22T09:01:14;16.17;;;9.70;;
4290;SDS011;2159;50.906;7.152;2024-03-22T09:03:40;13.83;;;9.60;;
4290;SDS011;2159;50.906;7.152;2024-03-22T09:06:10;13.07;;;8.93;;
4290;SDS011;2159;50.906;7.152;2024-03-22T09:08:36;14.57;;;10.00;;
4290;SDS011;2159;50.906;7.152;2024-03-22T09:11:02;13.27;;;8.90;;
4290;SDS011;2159;50.906;7.152;2024-03-22T09:13:28;14.33;;;10.03;;
4290;SDS011;2159;50.906;7.152;2024-03-22T09:15:59;15.90;;;9.70;;
4290;SDS011;2159;50.906;7.152;2024-03-22T09:18:25;14.80;;;9.60;;
4290;SDS011;2159;50.906;7.152;2024-03-22T09:20:52;14.83;;;9.20;;
4290;SDS011;2159;50.906;7.152;2024-03-22T09:23:18;18.53;;;9.93;;
4290;SDS011;2159;50.906;7.152;2024-03-22T09:25:45;20.87;;;10.10;;
4290;SDS011;2159;50.906;7.152;2024-03-22T09:28:10;15.97;;;9.93;;
4290;SDS011;2159;50.906;7.152;2024-03-22T09:30:37;11.40;;;8.43;;
4290;SDS011;2159;50.906;7.152;2024-03-22T09:33:04;15.63;;;9.40;;
4290;SDS011;2159;50.906;7.152;2024-03-22T09:35:31;13.70;;;8.93;;
4290;SDS011;2159;50.906;7.152;2024-03-22T09:37:58;17.57;;;8.83;;
4290;SDS011;2159;50.906;7.152;2024-03-22T09:40:25;12.20;;;7.60;;
4290;SDS011;2159;50.906;7.152;2024-03-22T09:42:50;9.03;;;6.80;;
4290;SDS011;2159;50.906;7.152;2024-03-22T09:45:19;10.60;;;7.13;;
4290;SDS011;2159;50.906;7.152;2024-03-22T09:47:45;15.63;;;6.60;;
4290;SDS011;2159;50.906;7.152;2024-03-22T09:50:13;13.77;;;7.90;;
4290;SDS011;2159;50.906;7.152;2024-03-22T09:52:39;11.37;;;7.60;;
4290;SDS011;2159;50.906;7.152;2024-03-22T09:55:08;7.93;;;5.70;;
4290;SDS011;2159;50.906;7.152;2024-03-22T09:57:34;10.43;;;5.20;;
4290;SDS011;2159;50.906;7.152;2024-03-22T10:00:01;6.10;;;4.83;;
4290;SDS011;2159;50.906;7.152;2024-03-22T10:02:27;6.67;;;4.80;;
4290;SDS011;2159;50.906;7.152;2024-03-22T10:04:56;5.47;;;4.80;;
4290;SDS011;2159;50.906;7.152;2024-03-22T10:07:26;7.97;;;4.50;;
4290;SDS011;2159;50.906;7.152;2024-03-22T10:09:52;6.70;;;4.20;;
4290;SDS011;2159;50.906;7.152;2024-03-22T10:12:18;5.60;;;4.17;;
4290;SDS011;2159;50.906;7.152;2024-03-22T10:14:45;4.20;;;3.63;;
4290;SDS011;2159;50.906;7.152;2024-03-22T10:17:11;5.63;;;4.20;;
4290;SDS011;2159;50.906;7.152;2024-03-22T10:19:38;7.80;;;4.40;;
4290;SDS011;2159;50.906;7.152;2024-03-22T10:22:08;4.90;;;3.57;;
4290;SDS011;2159;50.906;7.152;2024-03-22T10:24:46;3.40;;;3.07;;
4290;SDS011;2159;50.906;7.152;2024-03-22T10:27:12;4.87;;;3.60;;
4290;SDS011;2159;50.906;7.152;2024-03-22T10:29:39;9.10;;;4.20;;
4290;SDS011;2159;50.906;7.152;2024-03-22T10:32:05;6.20;;;4.20;;
4290;SDS011;2159;50.906;7.152;2024-03-22T10:34:33;8.30;;;4.00;;
4290;SDS011;2159;50.906;7.152;2024-03-22T10:36:58;6.27;;;4.30;;
4290;SDS011;2159;50.906;7.152;2024-03-22T10:39:26;5.43;;;4.07;;
4290;SDS011;2159;50.906;7.152;2024-03-22T10:41:53;7.50;;;4.30;;
4290;SDS011;2159;50.906;7.152;2024-03-22T10:44:20;6.43;;;4.43;;
4290;SDS011;2159;50.906;7.152;2024-03-22T10:46:46;7.27;;;5.20;;
4290;SDS011;2159;50.906;7.152;2024-03-22T10:49:15;12.40;;;4.40;;
4290;SDS011;2159;50.906;7.152;2024-03-22T10:51:41;9.87;;;4.43;;
4290;SDS011;2159;50.906;7.152;2024-03-22T10:54:09;5.87;;;4.87;;
4290;SDS011;2159;50.906;7.152;2024-03-22T10:56:35;6.53;;;4.43;;
4290;SDS011;2159;50.906;7.152;2024-03-22T10:59:04;4.37;;;3.90;;
4290;SDS011;2159;50.906;7.152;2024-03-22T11:01:29;6.30;;;3.90;;
4290;SDS011;2159;50.906;7.152;2024-03-22T11:04:02;6.77;;;4.00;;
4290;SDS011;2159;50.906;7.152;2024-03-22T11:06:28;4.43;;;3.63;;
4290;SDS011;2159;50.906;7.152;2024-03-22T11:08:58;7.00;;;4.07;;
4290;SDS011;2159;50.906;7.152;2024-03-22T11:11:24;6.40;;;3.97;;
4290;SDS011;2159;50.906;7.152;2024-03-22T11:13:51;6.00;;;3.67;;
4290;SDS011;2159;50.906;7.152;2024-03-22T11:16:21;5.47;;;3.03;;
4290;SDS011;2159;50.906;7.152;2024-03-22T11:18:47;4.47;;;3.37;;
4290;SDS011;2159;50.906;7.152;2024-03-22T11:21:14;5.67;;;4.10;;
4290;SDS011;2159;50.906;7.152;2024-03-22T11:23:40;6.53;;;3.73;;
4290;SDS011;2159;50.906;7.152;2024-03-22T11:26:06;4.90;;;3.50;;
4290;SDS011;2159;50.906;7.152;2024-03-22T11:28:33;5.80;;;4.30;;
4290;SDS011;2159;50.906;7.152;2024-03-22T11:30:58;4.97;;;3.60;;
4290;SDS011;2159;50.906;7.152;2024-03-22T11:33:27;4.27;;;3.27;;
4290;SDS011;2159;50.906;7.152;2024-03-22T11:35:52;5.70;;;3.43;;
4290;SDS011;2159;50.906;7.152;2024-03-22T11:38:19;4.63;;;3.57;;
4290;SDS011;2159;50.906;7.152;2024-03-22T11:40:45;7.30;;;3.80;;
4290;SDS011;2159;50.906;7.152;2024-03-22T11:43:12;6.23;;;4.60;;
4290;SDS011;2159;50.906;7.152;2024-03-22T11:45:40;5.83;;;3.73;;
4290;SDS011;2159;50.906;7.152;2024-03-22T11:48:08;5.20;;;4.13;;
4290;SDS011;2159;50.906;7.152;2024-03-22T11:50:37;6.10;;;4.30;;
4290;SDS011;2159;50.906;7.152;2024-03-22T11:53:05;6.07;;;3.80;;
4290;SDS011;2159;50.906;7.152;2024-03-22T11:55:30;4.87;;;3.77;;
4290;SDS011;2159;50.906;7.152;2024-03-22T11:57:57;5.47;;;3.93;;
4290;SDS011;2159;50.906;7.152;2024-03-22T12:00:23;5.43;;;3.80;;
4290;SDS011;2159;50.906;7.152;2024-03-22T12:02:50;6.23;;;4.43;;
4290;SDS011;2159;50.906;7.152;2024-03-22T12:05:17;4.53;;;3.80;;
4290;SDS011;2159;50.906;7.152;2024-03-22T12:07:45;4.90;;;4.00;;
4290;SDS011;2159;50.906;7.152;2024-03-22T12:10:11;4.70;;;4.20;;
4290;SDS011;2159;50.906;7.152;2024-03-22T12:12:37;8.67;;;3.97;;
4290;SDS011;2159;50.906;7.152;2024-03-22T12:15:03;5.10;;;4.30;;
4290;SDS011;2159;50.906;7.152;2024-03-22T12:17:30;5.23;;;3.93;;
4290;SDS011;2159;50.906;7.152;2024-03-22T12:19:56;5.57;;;3.90;;
4290;SDS011;2159;50.906;7.152;2024-03-22T12:22:22;5.27;;;4.27;;
4290;SDS011;2159;50.906;7.152;2024-03-22T12:24:49;6.50;;;4.93;;
4290;SDS011;2159;50.906;7.152;2024-03-22T12:27:16;5.50;;;4.70;;
4290;SDS011;2159;50.906;7.152;2024-03-22T12:29:41;6.30;;;5.17;;
4290;SDS011;2159;50.906;7.152;2024-03-22T12:32:09;6.37;;;4.97;;
4290;SDS011;2159;50.906;7.152;2024-03-22T12:34:35;10.50;;;5.20;;
4290;SDS011;2159;50.906;7.152;2024-03-22T12:37:02;8.77;;;5.60;;
4290;SDS011;2159;50.906;7.152;2024-03-22T12:39:28;9.90;;;5.90;;
4290;SDS011;2159;50.906;7.152;2024-03-22T12:41:55;5.80;;;4.73;;
4290;SDS011;2159;50.906;7.152;2024-03-22T12:44:21;6.03;;;3.93;;
4290;SDS011;2159;50.906;7.152;2024-03-22T12:46:48;8.17;;;5.37;;
4290;SDS011;2159;50.906;7.152;2024-03-22T12:49:14;8.83;;;5.60;;
4290;SDS011;2159;50.906;7.152;2024-03-22T12:51:40;5.60;;;4.57;;
4290;SDS011;2159;50.906;7.152;2024-03-22T12:54:07;7.43;;;4.13;;
4290;SDS011;2159;50.906;7.152;2024-03-22T12:56:34;6.27;;;4.80;;
4290;SDS011;2159;50.906;7.152;2024-03-22T12:59:01;5.23;;;4.70;;
4290;SDS011;2159;50.906;7.152;2024-03-22T13:01:27;6.57;;;4.97;;
4290;SDS011;2159;50.906;7.152;2024-03-22T13:03:53;7.37;;;5.40;;
4290;SDS011;2159;50.906;7.152;2024-03-22T13:06:20;7.27;;;4.90;;
4290;SDS011;2159;50.906;7.152;2024-03-22T13:08:45;10.00;;;6.87;;
4290;SDS011;2159;50.906;7.152;2024-03-22T13:11:12;9.50;;;6.37;;
4290;SDS011;2159;50.906;7.152;2024-03-22T13:13:39;10.67;;;6.80;;
4290;SDS011;2159;50.906;7.152;2024-03-22T13:16:07;8.93;;;5.57;;
4290;SDS011;2159;50.906;7.152;2024-03-22T13:18:34;8.40;;;5.80;;
4290;SDS011;2159;50.906;7.152;2024-03-22T13:21:01;9.33;;;6.33;;
4290;SDS011;2159;50.906;7.152;2024-03-22T13:23:28;9.07;;;6.50;;
4290;SDS011;2159;50.906;7.152;2024-03-22T13:25:54;6.53;;;5.23;;
4290;SDS011;2159;50.906;7.152;2024-03-22T13:28:21;9.60;;;6.40;;
4290;SDS011;2159;50.906;7.152;2024-03-22T13:30:48;9.87;;;5.33;;
4290;SDS011;2159;50.906;7.152;2024-03-22T13:33:15;8.13;;;5.60;;
4290;SDS011;2159;50.906;7.152;2024-03-22T13:35:44;7.83;;;5.77;;
4290;SDS011;2159;50.906;7.152;2024-03-22T13:38:10;10.00;;;5.97;;
4290;SDS011;2159;50.906;7.152;2024-03-22T13:40:38;6.93;;;5.53;;
4290;SDS011;2159;50.906;7.152;2024-03-22T13:43:05;12.57;;;5.30;;
4290;SDS011;2159;50.906;7.152;2024-03-22T13:45:32;9.03;;;5.10;;
4290;SDS011;2159;50.906;7.152;2024-03-22T13:47:57;7.70;;;5.20;;
4290;SDS011;2159;50.906;7.152;2024-03-22T13:50:26;7.13;;;5.33;;
4290;SDS011;2159;50.906;7.152;2024-03-22T13:52:51;8.53;;;5.33;;
4290;SDS011;2159;50.906;7.152;2024-03-22T13:55:18;8.53;;;6.30;;
4290;SDS011;2159;50.906;7.152;2024-03-22T13:57:43;10.83;;;6.37;;
4290;SDS011;2159;50.906;7.152;2024-03-22T14:00:10;6.50;;;5.40;;
4290;SDS011;2159;50.906;7.152;2024-03-22T14:02:39;7.03;;;5.50;;
4290;SDS011;2159;50.906;7.152;2024-03-22T14:05:06;6.33;;;4.70;;
4290;SDS011;2159;50.906;7.152;2024-03-22T14:07:35;7.03;;;5.40;;
4290;SDS011;2159;50.906;7.152;2024-03-22T14:10:05;8.13;;;5.60;;
4290;SDS011;2159;50.906;7.152;2024-03-22T14:12:31;8.60;;;5.50;;
4290;SDS011;2159;50.906;7.152;2024-03-22T14:14:58;8.60;;;5.90;;
4290;SDS011;2159;50.906;7.152;2024-03-22T14:17:24;8.10;;;6.10;;
4290;SDS011;2159;50.906;7.152;2024-03-22T14:19:50;8.80;;;6.23;;
4290;SDS011;2159;50.906;7.152;2024-03-22T14:22:18;11.20;;;6.23;;
4290;SDS011;2159;50.906;7.152;2024-03-22T14:24:46;6.43;;;5.30;;
4290;SDS011;2159;50.906;7.152;2024-03-22T14:27:11;8.93;;;5.73;;
4290;SDS011;2159;50.906;7.152;2024-03-22T14:29:38;8.50;;;5.30;;
4290;SDS011;2159;50.906;7.152;2024-03-22T14:32:04;8.10;;;5.77;;
4290;SDS011;2159;50.906;7.152;2024-03-22T14:34:32;7.13;;;5.13;;
4290;SDS011;2159;50.906;7.152;2024-03-22T14:36:58;7.33;;;5.40;;
4290;SDS011;2159;50.906;7.152;2024-03-22T14:39:24;8.03;;;5.07;;
4290;SDS011;2159;50.906;7.152;2024-03-22T14:41:51;10.10;;;4.83;;
4290;SDS011;2159;50.906;7.152;2024-03-22T14:44:17;6.73;;;4.73;;
4290;SDS011;2159;50.906;7.152;2024-03-22T14:46:43;8.47;;;5.27;;
4290;SDS011;2159;50.906;7.152;2024-03-22T14:49:10;7.60;;;5.60;;
4290;SDS011;2159;50.906;7.152;2024-03-22T14:51:36;8.57;;;6.10;;
4290;SDS011;2159;50.906;7.152;2024-03-22T14:54:02;11.17;;;6.33;;
4290;SDS011;2159;50.906;7.152;2024-03-22T14:56:30;9.77;;;5.67;;
4290;SDS011;2159;50.906;7.152;2024-03-22T14:58:57;12.93;;;6.30;;